sensor_id;sensor_type;location;lat;lon;timestamp;pressure;altitude;pressure_sealevel;temperature;humidity
20023;BME280;10172;42.054;24.546;2023-04-30T00:01:46;97784.63;;;13.86;100.00
20023;BME280;10172;42.054;24.546;2023-04-30T00:04:11;97820.72;;;14.20;100.00
20023;BME280;10172;42.054;24.546;2023-04-30T00:06:37;97825.25;;;13.79;100.00
20023;BME280;10172;42.054;24.546;2023-04-30T00:09:02;97822.00;;;13.46;100.00
20023;BME280;10172;42.054;24.546;2023-04-30T00:11:28;97812.84;;;14.28;100.00
20023;BME280;10172;42.054;24.546;2023-04-30T00:13:53;97832.41;;;14.78;100.00
20023;BME280;10172;42.054;24.546;2023-04-30T00:16:21;97847.63;;;14.96;100.00
20023;BME280;10172;42.054;24.546;2023-04-30T00:18:46;97809.69;;;14.53;100.00
20023;BME280;10172;42.054;24.546;2023-04-30T00:21:12;97834.31;;;14.38;100.00
20023;BME280;10172;42.054;24.546;2023-04-30T00:23:37;97826.91;;;14.70;100.00
20023;BME280;10172;42.054;24.546;2023-04-30T00:26:03;97846.78;;;15.06;100.00
20023;BME280;10172;42.054;24.546;2023-04-30T00:28:28;97823.00;;;14.24;100.00
20023;BME280;10172;42.054;24.546;2023-04-30T00:30:54;97810.81;;;14.51;100.00
20023;BME280;10172;42.054;24.546;2023-04-30T00:33:19;97858.44;;;14.07;100.00
20023;BME280;10172;42.054;24.546;2023-04-30T00:35:45;97823.63;;;14.38;100.00
20023;BME280;10172;42.054;24.546;2023-04-30T00:38:11;97841.09;;;14.61;100.00
20023;BME280;10172;42.054;24.546;2023-04-30T00:40:37;97858.84;;;13.72;100.00
20023;BME280;10172;42.054;24.546;2023-04-30T00:43:04;97809.59;;;13.03;100.00
20023;BME280;10172;42.054;24.546;2023-04-30T00:45:30;97838.34;;;12.58;100.00
20023;BME280;10172;42.054;24.546;2023-04-30T00:47:55;97826.44;;;12.31;100.00
20023;BME280;10172;42.054;24.546;2023-04-30T00:50:21;97830.38;;;11.93;100.00
20023;BME280;10172;42.054;24.546;2023-04-30T00:52:47;97826.81;;;12.58;100.00
20023;BME280;10172;42.054;24.546;2023-04-30T00:55:13;97832.47;;;12.96;100.00
20023;BME280;10172;42.054;24.546;2023-04-30T00:57:39;97843.16;;;12.96;100.00
20023;BME280;10172;42.054;24.546;2023-04-30T01:00:06;97846.91;;;12.73;100.00
20023;BME280;10172;42.054;24.546;2023-04-30T01:02:39;97814.41;;;11.71;100.00
20023;BME280;10172;42.054;24.546;2023-04-30T01:05:06;97830.41;;;11.71;100.00
20023;BME280;10172;42.054;24.546;2023-04-30T01:07:33;97811.94;;;11.68;100.00
20023;BME280;10172;42.054;24.546;2023-04-30T01:09:59;97808.84;;;11.74;100.00
20023;BME280;10172;42.054;24.546;2023-04-30T01:15:30;97828.75;;;11.13;100.00
20023;BME280;10172;42.054;24.546;2023-04-30T01:20:38;97832.56;;;11.66;100.00
20023;BME280;10172;42.054;24.546;2023-04-30T01:26:13;97832.31;;;12.77;100.00
20023;BME280;10172;42.054;24.546;2023-04-30T01:28:42;97808.09;;;12.69;100.00
20023;BME280;10172;42.054;24.546;2023-04-30T01:31:13;97832.78;;;13.35;100.00
20023;BME280;10172;42.054;24.546;2023-04-30T01:33:38;97809.41;;;12.54;100.00
20023;BME280;10172;42.054;24.546;2023-04-30T01:50:49;97826.31;;;12.64;100.00
20023;BME280;10172;42.054;24.546;2023-04-30T01:53:20;97823.09;;;13.02;100.00
20023;BME280;10172;42.054;24.546;2023-04-30T01:55:54;97821.06;;;12.74;100.00
20023;BME280;10172;42.054;24.546;2023-04-30T01:58:22;97774.66;;;11.13;100.00
20023;BME280;10172;42.054;24.546;2023-04-30T02:00:49;97805.44;;;11.94;100.00
20023;BME280;10172;42.054;24.546;2023-04-30T02:03:14;97817.13;;;12.57;100.00
20023;BME280;10172;42.054;24.546;2023-04-30T02:05:40;97783.13;;;12.70;100.00
20023;BME280;10172;42.054;24.546;2023-04-30T02:08:06;97791.50;;;12.66;100.00
20023;BME280;10172;42.054;24.546;2023-04-30T02:10:31;97800.34;;;11.47;100.00
20023;BME280;10172;42.054;24.546;2023-04-30T02:12:57;97760.75;;;11.54;100.00
20023;BME280;10172;42.054;24.546;2023-04-30T02:15:22;97811.31;;;12.09;100.00
20023;BME280;10172;42.054;24.546;2023-04-30T02:17:48;97801.31;;;11.35;100.00
20023;BME280;10172;42.054;24.546;2023-04-30T02:20:13;97780.72;;;11.81;100.00
20023;BME280;10172;42.054;24.546;2023-04-30T02:22:39;97804.63;;;12.57;100.00
20023;BME280;10172;42.054;24.546;2023-04-30T02:25:04;97790.47;;;12.78;100.00
20023;BME280;10172;42.054;24.546;2023-04-30T02:27:31;97814.72;;;12.54;100.00
20023;BME280;10172;42.054;24.546;2023-04-30T02:29:57;97815.00;;;12.92;100.00
20023;BME280;10172;42.054;24.546;2023-04-30T02:32:23;97789.25;;;12.50;100.00
20023;BME280;10172;42.054;24.546;2023-04-30T02:34:49;97792.34;;;12.03;100.00
20023;BME280;10172;42.054;24.546;2023-04-30T02:37:14;97814.75;;;12.43;100.00
20023;BME280;10172;42.054;24.546;2023-04-30T02:39:40;97814.72;;;12.54;100.00
20023;BME280;10172;42.054;24.546;2023-04-30T02:42:06;97772.28;;;11.43;100.00
20023;BME280;10172;42.054;24.546;2023-04-30T02:44:32;97777.22;;;11.36;100.00
20023;BME280;10172;42.054;24.546;2023-04-30T02:46:58;97824.34;;;11.69;100.00
20023;BME280;10172;42.054;24.546;2023-04-30T02:49:24;97782.22;;;10.84;100.00
20023;BME280;10172;42.054;24.546;2023-04-30T02:51:51;97791.63;;;11.56;100.00
20023;BME280;10172;42.054;24.546;2023-04-30T02:54:17;97773.31;;;11.96;100.00
20023;BME280;10172;42.054;24.546;2023-04-30T02:56:42;97756.50;;;11.84;100.00
20023;BME280;10172;42.054;24.546;2023-04-30T02:59:08;97804.72;;;11.59;100.00
20023;BME280;10172;42.054;24.546;2023-04-30T03:01:34;97786.66;;;11.52;100.00
20023;BME280;10172;42.054;24.546;2023-04-30T03:03:59;97811.13;;;11.34;100.00
20023;BME280;10172;42.054;24.546;2023-04-30T03:06:28;97838.59;;;11.57;100.00
20023;BME280;10172;42.054;24.546;2023-04-30T03:08:53;97820.97;;;10.99;100.00
20023;BME280;10172;42.054;24.546;2023-04-30T03:11:19;97811.47;;;11.41;100.00
20023;BME280;10172;42.054;24.546;2023-04-30T03:13:46;97817.66;;;10.85;100.00
20023;BME280;10172;42.054;24.546;2023-04-30T03:16:16;97816.13;;;10.58;100.00
20023;BME280;10172;42.054;24.546;2023-04-30T03:18:46;97817.88;;;11.16;100.00
20023;BME280;10172;42.054;24.546;2023-04-30T03:21:11;97785.94;;;11.16;100.00
20023;BME280;10172;42.054;24.546;2023-04-30T03:23:37;97815.16;;;10.94;100.00
20023;BME280;10172;42.054;24.546;2023-04-30T03:26:02;97783.50;;;10.56;100.00
20023;BME280;10172;42.054;24.546;2023-04-30T03:28:28;97812.63;;;11.04;100.00
20023;BME280;10172;42.054;24.546;2023-04-30T03:30:53;97839.31;;;11.26;100.00
20023;BME280;10172;42.054;24.546;2023-04-30T03:33:19;97805.84;;;10.54;100.00
20023;BME280;10172;42.054;24.546;2023-04-30T03:35:45;97789.16;;;10.04;100.00
20023;BME280;10172;42.054;24.546;2023-04-30T03:38:10;97850.50;;;10.61;100.00
20023;BME280;10172;42.054;24.546;2023-04-30T03:40:36;97806.63;;;11.13;100.00
20023;BME280;10172;42.054;24.546;2023-04-30T03:43:01;97826.47;;;11.31;100.00
20023;BME280;10172;42.054;24.546;2023-04-30T03:45:27;97838.22;;;11.28;100.00
20023;BME280;10172;42.054;24.546;2023-04-30T03:47:52;97838.88;;;10.97;100.00
20023;BME280;10172;42.054;24.546;2023-04-30T03:50:18;97809.84;;;10.12;100.00
20023;BME280;10172;42.054;24.546;2023-04-30T03:52:44;97849.00;;;10.81;100.00
20023;BME280;10172;42.054;24.546;2023-04-30T03:55:10;97845.81;;;10.76;100.00
20023;BME280;10172;42.054;24.546;2023-04-30T03:57:36;97867.13;;;11.33;100.00
20023;BME280;10172;42.054;24.546;2023-04-30T04:00:02;97852.28;;;10.96;100.00
20023;BME280;10172;42.054;24.546;2023-04-30T04:02:32;97857.03;;;11.71;100.00
20023;BME280;10172;42.054;24.546;2023-04-30T04:04:58;97844.59;;;11.15;100.00
20023;BME280;10172;42.054;24.546;2023-04-30T04:07:23;97865.97;;;10.91;100.00
20023;BME280;10172;42.054;24.546;2023-04-30T04:09:49;97825.47;;;10.64;100.00
20023;BME280;10172;42.054;24.546;2023-04-30T04:12:14;97865.94;;;11.26;100.00
20023;BME280;10172;42.054;24.546;2023-04-30T04:14:40;97848.38;;;10.77;100.00
20023;BME280;10172;42.054;24.546;2023-04-30T04:17:05;97858.06;;;10.78;100.00
20023;BME280;10172;42.054;24.546;2023-04-30T04:19:31;97887.34;;;10.90;100.00
20023;BME280;10172;42.054;24.546;2023-04-30T04:21:56;97872.84;;;10.59;100.00
20023;BME280;10172;42.054;24.546;2023-04-30T04:24:25;97869.66;;;10.77;100.00
20023;BME280;10172;42.054;24.546;2023-04-30T04:26:51;97884.00;;;10.99;100.00
20023;BME280;10172;42.054;24.546;2023-04-30T04:29:17;97871.31;;;11.81;100.00
20023;BME280;10172;42.054;24.546;2023-04-30T04:31:43;97880.75;;;12.73;100.00
20023;BME280;10172;42.054;24.546;2023-04-30T04:34:08;97852.13;;;12.75;100.00
20023;BME280;10172;42.054;24.546;2023-04-30T04:36:34;97881.28;;;12.87;100.00
20023;BME280;10172;42.054;24.546;2023-04-30T04:39:00;97869.47;;;12.69;100.00
20023;BME280;10172;42.054;24.546;2023-04-30T04:41:29;97867.81;;;12.03;100.00
20023;BME280;10172;42.054;24.546;2023-04-30T04:43:55;97883.28;;;12.31;100.00
20023;BME280;10172;42.054;24.546;2023-04-30T04:46:21;97850.97;;;12.88;100.00
20023;BME280;10172;42.054;24.546;2023-04-30T04:48:47;97868.06;;;13.17;100.00
20023;BME280;10172;42.054;24.546;2023-04-30T04:51:13;97859.53;;;13.65;100.00
20023;BME280;10172;42.054;24.546;2023-04-30T04:53:39;97890.09;;;14.32;100.00
20023;BME280;10172;42.054;24.546;2023-04-30T04:56:05;97892.81;;;14.71;100.00
20023;BME280;10172;42.054;24.546;2023-04-30T04:58:31;97885.50;;;14.63;100.00
20023;BME280;10172;42.054;24.546;2023-04-30T05:00:57;97894.41;;;14.83;100.00
20023;BME280;10172;42.054;24.546;2023-04-30T05:03:25;97877.06;;;14.87;100.00
20023;BME280;10172;42.054;24.546;2023-04-30T05:05:51;97870.97;;;14.66;100.00
20023;BME280;10172;42.054;24.546;2023-04-30T05:08:16;97911.31;;;14.93;100.00
20023;BME280;10172;42.054;24.546;2023-04-30T05:10:41;97908.22;;;15.07;100.00
20023;BME280;10172;42.054;24.546;2023-04-30T05:13:07;97902.03;;;15.07;100.00
20023;BME280;10172;42.054;24.546;2023-04-30T05:15:32;97889.47;;;15.07;100.00
20023;BME280;10172;42.054;24.546;2023-04-30T05:17:58;97902.84;;;15.36;100.00
20023;BME280;10172;42.054;24.546;2023-04-30T05:20:23;97926.56;;;15.40;100.00
20023;BME280;10172;42.054;24.546;2023-04-30T05:22:49;97915.97;;;15.20;100.00
20023;BME280;10172;42.054;24.546;2023-04-30T05:25:14;97886.81;;;14.98;100.00
20023;BME280;10172;42.054;24.546;2023-04-30T05:27:40;97897.78;;;15.04;100.00
20023;BME280;10172;42.054;24.546;2023-04-30T05:30:06;97909.03;;;14.79;100.00
20023;BME280;10172;42.054;24.546;2023-04-30T05:32:31;97880.44;;;14.20;100.00
20023;BME280;10172;42.054;24.546;2023-04-30T05:34:57;97898.81;;;14.34;100.00
20023;BME280;10172;42.054;24.546;2023-04-30T05:37:22;97905.66;;;14.77;100.00
20023;BME280;10172;42.054;24.546;2023-04-30T05:39:48;97897.38;;;14.99;100.00
20023;BME280;10172;42.054;24.546;2023-04-30T05:42:13;97921.63;;;15.26;100.00
20023;BME280;10172;42.054;24.546;2023-04-30T05:44:40;97920.66;;;15.08;100.00
20023;BME280;10172;42.054;24.546;2023-04-30T05:47:06;97904.00;;;15.05;100.00
20023;BME280;10172;42.054;24.546;2023-04-30T05:49:31;97894.56;;;15.10;100.00
20023;BME280;10172;42.054;24.546;2023-04-30T05:51:57;97888.88;;;14.65;100.00
20023;BME280;10172;42.054;24.546;2023-04-30T05:54:22;97912.13;;;14.65;100.00
20023;BME280;10172;42.054;24.546;2023-04-30T05:56:48;97891.50;;;12.82;100.00
20023;BME280;10172;42.054;24.546;2023-04-30T05:59:13;97894.75;;;12.65;100.00
20023;BME280;10172;42.054;24.546;2023-04-30T06:01:38;97883.19;;;12.76;100.00
20023;BME280;10172;42.054;24.546;2023-04-30T06:04:04;97905.97;;;13.11;100.00
20023;BME280;10172;42.054;24.546;2023-04-30T06:06:30;97889.75;;;13.65;100.00
20023;BME280;10172;42.054;24.546;2023-04-30T06:08:56;97907.66;;;14.94;100.00
20023;BME280;10172;42.054;24.546;2023-04-30T06:11:21;97929.72;;;14.27;100.00
20023;BME280;10172;42.054;24.546;2023-04-30T06:13:50;97917.50;;;15.03;100.00
20023;BME280;10172;42.054;24.546;2023-04-30T06:16:15;97881.03;;;15.02;100.00
20023;BME280;10172;42.054;24.546;2023-04-30T06:18:41;97923.53;;;15.91;100.00
20023;BME280;10172;42.054;24.546;2023-04-30T06:21:06;97921.00;;;16.27;100.00
20023;BME280;10172;42.054;24.546;2023-04-30T06:23:32;97904.69;;;16.10;100.00
20023;BME280;10172;42.054;24.546;2023-04-30T06:25:57;97890.75;;;15.51;100.00
20023;BME280;10172;42.054;24.546;2023-04-30T06:28:23;97937.91;;;16.00;100.00
20023;BME280;10172;42.054;24.546;2023-04-30T06:30:49;97902.63;;;16.22;100.00
20023;BME280;10172;42.054;24.546;2023-04-30T06:33:14;97901.66;;;16.50;100.00
20023;BME280;10172;42.054;24.546;2023-04-30T06:35:40;97924.91;;;16.69;100.00
20023;BME280;10172;42.054;24.546;2023-04-30T06:38:05;97903.75;;;17.01;100.00
20023;BME280;10172;42.054;24.546;2023-04-30T06:40:31;97923.81;;;16.25;100.00
20023;BME280;10172;42.054;24.546;2023-04-30T06:42:56;97919.78;;;16.48;100.00
20023;BME280;10172;42.054;24.546;2023-04-30T06:45:22;97920.91;;;17.18;100.00
20023;BME280;10172;42.054;24.546;2023-04-30T06:47:47;97913.88;;;16.08;100.00
20023;BME280;10172;42.054;24.546;2023-04-30T06:50:13;97897.00;;;16.80;100.00
20023;BME280;10172;42.054;24.546;2023-04-30T06:52:39;97917.88;;;17.39;100.00
20023;BME280;10172;42.054;24.546;2023-04-30T06:55:05;97912.34;;;17.75;100.00
20023;BME280;10172;42.054;24.546;2023-04-30T06:57:31;97912.28;;;17.93;100.00
20023;BME280;10172;42.054;24.546;2023-04-30T06:59:57;97898.00;;;16.79;100.00
20023;BME280;10172;42.054;24.546;2023-04-30T07:02:22;97905.72;;;16.64;100.00
20023;BME280;10172;42.054;24.546;2023-04-30T07:04:48;97917.19;;;17.98;100.00
20023;BME280;10172;42.054;24.546;2023-04-30T07:07:13;97912.16;;;18.62;97.37
20023;BME280;10172;42.054;24.546;2023-04-30T07:09:39;97903.56;;;18.33;98.47
20023;BME280;10172;42.054;24.546;2023-04-30T07:12:05;97907.81;;;18.77;94.67
20023;BME280;10172;42.054;24.546;2023-04-30T07:14:31;97916.53;;;19.29;92.30
20023;BME280;10172;42.054;24.546;2023-04-30T07:16:56;97927.88;;;19.73;89.24
20023;BME280;10172;42.054;24.546;2023-04-30T07:19:22;97911.69;;;19.81;88.69
20023;BME280;10172;42.054;24.546;2023-04-30T07:21:48;97896.69;;;19.62;88.70
20023;BME280;10172;42.054;24.546;2023-04-30T07:24:13;97917.31;;;18.89;92.85
20023;BME280;10172;42.054;24.546;2023-04-30T07:26:38;97916.75;;;19.76;88.91
20023;BME280;10172;42.054;24.546;2023-04-30T07:29:04;97934.56;;;20.25;89.99
20023;BME280;10172;42.054;24.546;2023-04-30T07:31:29;97899.50;;;19.93;83.24
20023;BME280;10172;42.054;24.546;2023-04-30T07:33:55;97934.50;;;20.42;86.34
20023;BME280;10172;42.054;24.546;2023-04-30T07:36:21;97910.72;;;20.84;83.14
20023;BME280;10172;42.054;24.546;2023-04-30T07:38:47;97893.28;;;20.48;81.68
20023;BME280;10172;42.054;24.546;2023-04-30T07:41:12;97925.34;;;19.55;86.07
20023;BME280;10172;42.054;24.546;2023-04-30T07:43:38;97921.94;;;20.65;85.23
20023;BME280;10172;42.054;24.546;2023-04-30T07:46:04;97924.03;;;21.24;81.52
20023;BME280;10172;42.054;24.546;2023-04-30T07:48:29;97905.16;;;20.77;77.00
20023;BME280;10172;42.054;24.546;2023-04-30T07:50:55;97890.13;;;19.41;76.46
20023;BME280;10172;42.054;24.546;2023-04-30T07:53:22;97933.22;;;19.17;74.57
20023;BME280;10172;42.054;24.546;2023-04-30T07:55:48;97888.91;;;19.76;74.52
20023;BME280;10172;42.054;24.546;2023-04-30T07:58:13;97919.00;;;20.27;74.74
20023;BME280;10172;42.054;24.546;2023-04-30T08:00:39;97884.25;;;20.63;72.51
20023;BME280;10172;42.054;24.546;2023-04-30T08:03:05;97920.28;;;21.71;64.39
20023;BME280;10172;42.054;24.546;2023-04-30T08:05:30;97901.75;;;21.06;63.17
20023;BME280;10172;42.054;24.546;2023-04-30T08:07:56;97899.19;;;19.80;67.25
20023;BME280;10172;42.054;24.546;2023-04-30T08:10:21;97898.84;;;19.35;68.23
20023;BME280;10172;42.054;24.546;2023-04-30T08:12:46;97902.41;;;18.69;69.48
20023;BME280;10172;42.054;24.546;2023-04-30T08:15:12;97906.69;;;18.46;74.89
20023;BME280;10172;42.054;24.546;2023-04-30T08:17:37;97911.25;;;19.03;75.42
20023;BME280;10172;42.054;24.546;2023-04-30T08:20:04;97902.31;;;18.11;82.24
20023;BME280;10172;42.054;24.546;2023-04-30T08:22:29;97874.19;;;18.97;75.49
20023;BME280;10172;42.054;24.546;2023-04-30T08:24:55;97885.72;;;19.56;73.89
20023;BME280;10172;42.054;24.546;2023-04-30T08:27:21;97900.28;;;20.26;69.48
20023;BME280;10172;42.054;24.546;2023-04-30T08:29:47;97898.75;;;20.23;67.10
20023;BME280;10172;42.054;24.546;2023-04-30T08:32:12;97877.59;;;19.32;73.20
20023;BME280;10172;42.054;24.546;2023-04-30T08:34:37;97874.56;;;19.35;72.27
20023;BME280;10172;42.054;24.546;2023-04-30T08:37:05;97884.97;;;20.02;69.47
20023;BME280;10172;42.054;24.546;2023-04-30T08:39:31;97894.59;;;19.08;70.21
20023;BME280;10172;42.054;24.546;2023-04-30T08:42:00;97878.28;;;19.74;69.60
20023;BME280;10172;42.054;24.546;2023-04-30T08:44:26;97881.69;;;21.31;65.53
20023;BME280;10172;42.054;24.546;2023-04-30T08:46:53;97882.78;;;20.92;64.99
20023;BME280;10172;42.054;24.546;2023-04-30T08:49:23;97895.75;;;20.10;64.14
20023;BME280;10172;42.054;24.546;2023-04-30T08:51:50;97884.66;;;19.97;64.92
20023;BME280;10172;42.054;24.546;2023-04-30T08:54:17;97865.09;;;21.12;60.40
20023;BME280;10172;42.054;24.546;2023-04-30T08:56:44;97878.06;;;20.55;58.42
20023;BME280;10172;42.054;24.546;2023-04-30T08:59:11;97883.94;;;20.03;59.50
20023;BME280;10172;42.054;24.546;2023-04-30T09:01:36;97871.78;;;20.07;59.09
20023;BME280;10172;42.054;24.546;2023-04-30T09:04:02;97888.97;;;20.22;60.87
20023;BME280;10172;42.054;24.546;2023-04-30T09:06:28;97895.97;;;19.68;59.85
20023;BME280;10172;42.054;24.546;2023-04-30T09:08:54;97848.94;;;19.47;59.64
20023;BME280;10172;42.054;24.546;2023-04-30T09:13:51;97871.50;;;20.80;59.06
20023;BME280;10172;42.054;24.546;2023-04-30T09:16:20;97871.25;;;20.98;59.95
20023;BME280;10172;42.054;24.546;2023-04-30T09:18:47;97865.38;;;20.24;58.33
20023;BME280;10172;42.054;24.546;2023-04-30T09:21:13;97874.66;;;20.92;58.62
20023;BME280;10172;42.054;24.546;2023-04-30T09:23:59;97861.00;;;21.38;52.20
20023;BME280;10172;42.054;24.546;2023-04-30T09:26:31;97841.47;;;22.18;51.43
20023;BME280;10172;42.054;24.546;2023-04-30T09:28:57;97864.16;;;21.65;50.22
20023;BME280;10172;42.054;24.546;2023-04-30T09:31:24;97819.94;;;22.45;51.77
20023;BME280;10172;42.054;24.546;2023-04-30T09:33:50;97849.19;;;22.65;49.95
20023;BME280;10172;42.054;24.546;2023-04-30T09:36:16;97827.63;;;22.13;53.58
20023;BME280;10172;42.054;24.546;2023-04-30T09:38:42;97844.03;;;21.44;52.37
20023;BME280;10172;42.054;24.546;2023-04-30T09:41:23;97848.13;;;21.78;53.20
20023;BME280;10172;42.054;24.546;2023-04-30T09:43:51;97838.59;;;20.76;54.76
20023;BME280;10172;42.054;24.546;2023-04-30T09:46:18;97839.78;;;20.74;55.97
20023;BME280;10172;42.054;24.546;2023-04-30T09:48:43;97817.03;;;21.22;54.97
20023;BME280;10172;42.054;24.546;2023-04-30T09:51:09;97833.41;;;21.58;56.45
20023;BME280;10172;42.054;24.546;2023-04-30T09:53:40;97827.34;;;22.22;52.94
20023;BME280;10172;42.054;24.546;2023-04-30T09:56:07;97822.34;;;22.84;48.68
20023;BME280;10172;42.054;24.546;2023-04-30T09:58:37;97826.59;;;21.99;51.97
20023;BME280;10172;42.054;24.546;2023-04-30T10:01:07;97811.44;;;20.70;51.83
20023;BME280;10172;42.054;24.546;2023-04-30T10:03:38;97820.34;;;21.46;52.81
20023;BME280;10172;42.054;24.546;2023-04-30T10:06:05;97822.16;;;21.31;52.54
20023;BME280;10172;42.054;24.546;2023-04-30T10:08:43;97819.13;;;22.30;50.52
20023;BME280;10172;42.054;24.546;2023-04-30T10:11:14;97836.09;;;22.53;49.57
20023;BME280;10172;42.054;24.546;2023-04-30T10:13:56;97820.34;;;22.13;48.58
20023;BME280;10172;42.054;24.546;2023-04-30T10:16:38;97823.69;;;22.95;47.91
20023;BME280;10172;42.054;24.546;2023-04-30T10:19:35;97832.59;;;22.24;46.75
20023;BME280;10172;42.054;24.546;2023-04-30T10:22:02;97804.03;;;20.95;50.25
20023;BME280;10172;42.054;24.546;2023-04-30T10:24:29;97816.50;;;20.73;52.90
20023;BME280;10172;42.054;24.546;2023-04-30T10:26:54;97815.97;;;21.60;51.41
20023;BME280;10172;42.054;24.546;2023-04-30T10:29:21;97796.31;;;21.81;51.35
20023;BME280;10172;42.054;24.546;2023-04-30T10:31:48;97803.19;;;21.69;51.98
20023;BME280;10172;42.054;24.546;2023-04-30T10:37:10;97805.38;;;20.68;53.45
20023;BME280;10172;42.054;24.546;2023-04-30T10:39:37;97806.44;;;20.28;55.36
20023;BME280;10172;42.054;24.546;2023-04-30T10:42:05;97809.97;;;21.35;52.53
20023;BME280;10172;42.054;24.546;2023-04-30T10:44:33;97810.63;;;21.37;52.90
20023;BME280;10172;42.054;24.546;2023-04-30T10:47:03;97772.03;;;20.98;53.85
20023;BME280;10172;42.054;24.546;2023-04-30T10:49:29;97792.13;;;20.81;52.78
20023;BME280;10172;42.054;24.546;2023-04-30T10:51:58;97780.56;;;20.64;50.76
20023;BME280;10172;42.054;24.546;2023-04-30T10:57:14;97799.13;;;21.87;48.73
20023;BME280;10172;42.054;24.546;2023-04-30T11:02:43;97799.59;;;21.24;53.92
20023;BME280;10172;42.054;24.546;2023-04-30T11:05:13;97806.72;;;21.40;51.15
20023;BME280;10172;42.054;24.546;2023-04-30T11:10:15;97792.63;;;22.11;45.63
20023;BME280;10172;42.054;24.546;2023-04-30T11:12:47;97798.38;;;21.79;46.81
20023;BME280;10172;42.054;24.546;2023-04-30T11:15:16;97792.56;;;20.84;47.94
20023;BME280;10172;42.054;24.546;2023-04-30T11:17:48;97776.25;;;21.23;45.17
20023;BME280;10172;42.054;24.546;2023-04-30T11:20:24;97767.69;;;21.86;46.27
20023;BME280;10172;42.054;24.546;2023-04-30T11:23:09;97787.50;;;23.09;45.37
20023;BME280;10172;42.054;24.546;2023-04-30T11:25:40;97772.59;;;21.54;44.89
20023;BME280;10172;42.054;24.546;2023-04-30T11:28:06;97768.34;;;21.36;45.61
20023;BME280;10172;42.054;24.546;2023-04-30T11:30:32;97743.78;;;21.23;45.02
20023;BME280;10172;42.054;24.546;2023-04-30T11:33:00;97786.84;;;21.48;46.61
20023;BME280;10172;42.054;24.546;2023-04-30T11:35:27;97748.78;;;22.94;45.02
20023;BME280;10172;42.054;24.546;2023-04-30T11:37:54;97776.16;;;23.69;41.27
20023;BME280;10172;42.054;24.546;2023-04-30T11:40:20;97758.06;;;22.13;46.01
20023;BME280;10172;42.054;24.546;2023-04-30T11:42:46;97748.91;;;21.18;47.77
20023;BME280;10172;42.054;24.546;2023-04-30T11:45:14;97724.69;;;21.02;49.42
20023;BME280;10172;42.054;24.546;2023-04-30T11:47:42;97767.56;;;22.09;47.04
20023;BME280;10172;42.054;24.546;2023-04-30T11:50:09;97749.81;;;22.21;45.26
20023;BME280;10172;42.054;24.546;2023-04-30T11:52:36;97751.47;;;21.34;49.54
20023;BME280;10172;42.054;24.546;2023-04-30T11:55:22;97771.78;;;21.30;49.89
20023;BME280;10172;42.054;24.546;2023-04-30T11:57:57;97763.53;;;21.09;52.30
20023;BME280;10172;42.054;24.546;2023-04-30T12:00:28;97760.47;;;20.36;61.05
20023;BME280;10172;42.054;24.546;2023-04-30T12:02:55;97771.00;;;19.84;69.62
20023;BME280;10172;42.054;24.546;2023-04-30T12:05:22;97768.84;;;20.10;73.26
20023;BME280;10172;42.054;24.546;2023-04-30T12:07:50;97741.97;;;19.86;61.61
20023;BME280;10172;42.054;24.546;2023-04-30T12:10:19;97751.84;;;20.41;52.72
20023;BME280;10172;42.054;24.546;2023-04-30T12:12:49;97769.50;;;20.51;50.10
20023;BME280;10172;42.054;24.546;2023-04-30T12:15:17;97726.09;;;20.53;55.71
20023;BME280;10172;42.054;24.546;2023-04-30T12:17:44;97750.75;;;21.40;51.92
20023;BME280;10172;42.054;24.546;2023-04-30T12:20:12;97755.53;;;22.12;53.26
20023;BME280;10172;42.054;24.546;2023-04-30T12:22:39;97759.22;;;22.40;50.07
20023;BME280;10172;42.054;24.546;2023-04-30T12:25:07;97734.75;;;21.31;55.29
20023;BME280;10172;42.054;24.546;2023-04-30T12:27:35;97724.38;;;20.60;55.67
20023;BME280;10172;42.054;24.546;2023-04-30T12:30:08;97750.41;;;20.98;55.66
20023;BME280;10172;42.054;24.546;2023-04-30T12:32:41;97745.56;;;21.16;54.95
20023;BME280;10172;42.054;24.546;2023-04-30T12:35:08;97738.97;;;21.33;55.45
20023;BME280;10172;42.054;24.546;2023-04-30T12:37:33;97752.56;;;21.25;53.84
20023;BME280;10172;42.054;24.546;2023-04-30T12:39:59;97708.19;;;21.64;53.88
20023;BME280;10172;42.054;24.546;2023-04-30T12:42:30;97756.06;;;21.63;54.24
20023;BME280;10172;42.054;24.546;2023-04-30T12:44:57;97721.47;;;20.84;54.38
20023;BME280;10172;42.054;24.546;2023-04-30T12:47:24;97729.47;;;21.37;55.02
20023;BME280;10172;42.054;24.546;2023-04-30T12:49:49;97749.78;;;21.33;54.08
20023;BME280;10172;42.054;24.546;2023-04-30T12:52:15;97727.19;;;21.04;47.96
20023;BME280;10172;42.054;24.546;2023-04-30T12:54:41;97718.44;;;21.02;47.25
20023;BME280;10172;42.054;24.546;2023-04-30T12:57:11;97742.53;;;21.49;48.10
20023;BME280;10172;42.054;24.546;2023-04-30T12:59:39;97711.44;;;21.74;46.29
20023;BME280;10172;42.054;24.546;2023-04-30T13:02:12;97735.00;;;21.73;47.93
20023;BME280;10172;42.054;24.546;2023-04-30T13:04:42;97747.16;;;21.92;47.50
20023;BME280;10172;42.054;24.546;2023-04-30T13:07:07;97757.13;;;21.25;49.51
20023;BME280;10172;42.054;24.546;2023-04-30T13:09:34;97791.03;;;20.37;59.55
20023;BME280;10172;42.054;24.546;2023-04-30T13:12:00;97761.31;;;19.27;65.56
20023;BME280;10172;42.054;24.546;2023-04-30T13:14:26;97782.22;;;19.25;64.33
20023;BME280;10172;42.054;24.546;2023-04-30T13:16:52;97776.47;;;19.28;66.35
20023;BME280;10172;42.054;24.546;2023-04-30T13:19:18;97740.44;;;19.13;65.34
20023;BME280;10172;42.054;24.546;2023-04-30T13:21:44;97748.69;;;19.27;65.88